Time;durP1;ratioP1;P1;durP2;ratioP2;P2;SDS_P1;SDS_P2;PMS_P1;PMS_P2;Temp;Humidity;BMP_temperature;BMP_pressure;BME280_temperature;BME280_humidity;BME280_pressure;Samples;Min_cycle;Max_cycle;Signal;HPM_P1;HPM_P2
2022/08/08 03:09:03;;;;;;;22.55;10.73;;;26.40;99.90;;;;;;6007807;23;20018;31
2022/08/08 03:15:05;;;;;;;25.17;10.63;;;26.30;99.90;;;;;;5286366;23;20049;-94
2022/08/08 03:18:03;;;;;;;22.95;10.63;;;26.30;99.90;;;;;;4865927;29;20037;-92
2022/08/08 03:20:49;;;;;;;24.70;10.85;;;26.30;99.90;;;;;;4852195;29;20029;-92
2022/08/08 03:23:21;;;;;;;20.80;10.27;;;26.20;99.90;;;;;;4850754;29;20060;-93
2022/08/08 03:25:49;;;;;;;25.50;10.93;;;26.20;99.90;;;;;;4866324;29;20489;-93
2022/08/08 03:28:40;;;;;;;21.52;11.38;;;26.10;99.90;;;;;;4865580;29;20044;-92
2022/08/08 03:33:55;;;;;;;19.40;10.77;;;26.10;99.90;;;;;;4865465;29;20483;-92
2022/08/08 03:36:22;;;;;;;25.02;11.52;;;26.00;99.90;;;;;;4865422;29;20056;-92
2022/08/08 03:38:50;;;;;;;21.55;11.25;;;26.00;99.90;;;;;;4866097;29;20043;-92
2022/08/08 03:41:34;;;;;;;21.95;10.82;;;25.90;99.90;;;;;;4866413;29;20558;-93
2022/08/08 03:44:04;;;;;;;23.52;9.98;;;25.90;99.90;;;;;;4865262;29;20511;-92
2022/08/08 03:46:48;;;;;;;24.75;11.05;;;25.80;99.90;;;;;;4865184;29;20029;-93
2022/08/08 03:49:28;;;;;;;25.77;11.43;;;25.80;99.90;;;;;;4867500;29;20036;-93
2022/08/08 03:51:56;;;;;;;19.73;11.20;;;25.80;99.90;;;;;;4867200;29;20446;-93
2022/08/08 03:54:27;;;;;;;27.35;11.98;;;25.70;99.90;;;;;;4866668;29;20501;-93
2022/08/08 03:56:55;;;;;;;19.70;11.73;;;25.70;99.90;;;;;;4865832;29;20029;-93
2022/08/08 03:59:30;;;;;;;18.73;11.18;;;25.70;99.90;;;;;;4865464;29;20067;-93
2022/08/08 04:02:13;;;;;;;27.58;13.02;;;25.70;99.90;;;;;;4868911;29;20084;-92
2022/08/08 04:04:44;;;;;;;17.90;11.10;;;25.80;99.90;;;;;;4870045;29;20037;-93
2022/08/08 04:07:12;;;;;;;21.92;11.80;;;25.70;99.90;;;;;;4872553;29;20418;-94
2022/08/08 04:10:06;;;;;;;22.13;11.93;;;25.70;99.90;;;;;;4881331;29;20051;-94
2022/08/08 04:13:05;;;;;;;19.85;11.88;;;25.70;99.90;;;;;;4866682;29;20069;-94
2022/08/08 04:15:37;;;;;;;21.92;11.85;;;25.70;99.90;;;;;;4875170;29;20044;-92
2022/08/08 04:18:13;;;;;;;18.65;11.30;;;25.70;99.90;;;;;;4867997;29;20037;-93
2022/08/08 04:20:56;;;;;;;;;;;;;;;;;;;;;
2022/08/08 04:23:30;;;;;;;22.80;11.97;;;25.70;99.90;;;;;;4867012;29;20135;-93
2022/08/08 04:26:03;;;;;;;17.77;11.95;;;25.80;99.90;;;;;;4865823;29;20111;-92
2022/08/08 04:28:30;;;;;;;21.88;10.85;;;25.80;99.90;;;;;;4866779;29;20041;-93
2022/08/08 04:31:03;;;;;;;18.10;12.35;;;25.80;99.90;;;;;;4867969;29;20033;-93
2022/08/08 04:33:37;;;;;;;18.83;11.77;;;25.90;99.90;;;;;;4867716;29;20040;-93
2022/08/08 04:36:07;;;;;;;20.13;12.45;;;26.00;99.90;;;;;;4868367;29;20037;-93
2022/08/08 04:38:37;;;;;;;25.48;13.10;;;26.00;99.90;;;;;;4866686;29;20041;-92
2022/08/08 04:41:04;;;;;;;23.48;12.20;;;26.10;99.90;;;;;;4865555;29;20032;-92
2022/08/08 04:43:31;;;;;;;19.70;11.80;;;26.10;99.90;;;;;;4865405;29;20502;-93
2022/08/08 04:46:10;;;;;;;24.60;12.85;;;26.20;99.90;;;;;;4865933;29;20034;-94
2022/08/08 04:48:45;;;;;;;21.13;12.57;;;26.20;99.90;;;;;;4865801;29;20041;-92
2022/08/08 04:51:12;;;;;;;17.30;11.65;;;26.20;99.90;;;;;;4865612;29;20032;-92
2022/08/08 04:53:56;;;;;;;23.67;12.80;;;26.20;99.90;;;;;;4866741;29;20029;-92
2022/08/08 04:56:24;;;;;;;21.50;12.77;;;26.30;99.90;;;;;;4865967;29;20033;-93
2022/08/08 04:58:50;;;;;;;19.95;12.90;;;26.50;99.90;;;;;;4865138;29;20075;-92
2022/08/08 05:01:19;;;;;;;21.67;12.80;;;26.50;99.90;;;;;;4864761;29;20443;-92
2022/08/08 05:03:49;;;;;;;28.77;13.88;;;26.60;99.90;;;;;;4865841;29;20048;-94
2022/08/08 05:06:16;;;;;;;28.83;14.45;;;26.60;99.90;;;;;;4866164;29;20040;-93
2022/08/08 05:08:45;;;;;;;35.72;14.77;;;26.60;99.90;;;;;;4865172;29;20052;-91
2022/08/08 05:11:13;;;;;;;24.38;13.38;;;26.60;99.90;;;;;;4867167;29;20428;-91
2022/08/08 05:13:43;;;;;;;31.02;14.55;;;26.60;99.90;;;;;;4863854;29;20406;-92
2022/08/08 05:16:10;;;;;;;26.83;13.30;;;26.70;99.90;;;;;;4848882;29;20041;-93
2022/08/08 05:18:37;;;;;;;30.05;13.48;;;26.80;99.90;;;;;;4849854;29;20097;-93
2022/08/08 05:21:27;;;;;;;27.50;13.20;;;26.80;99.90;;;;;;4851662;29;20044;-91
2022/08/08 05:23:56;;;;;;;23.58;12.52;;;26.90;99.90;;;;;;4864990;29;20053;-92
2022/08/08 05:26:22;;;;;;;25.98;14.45;;;27.10;99.90;;;;;;4850011;29;20359;-92
2022/08/08 05:28:49;;;;;;;23.48;14.25;;;27.10;99.90;;;;;;4848647;29;20057;-92
2022/08/08 05:31:50;;;;;;;24.38;13.43;;;27.00;99.90;;;;;;4848923;29;20109;-92
2022/08/08 05:34:42;;;;;;;23.40;12.23;;;27.00;99.90;;;;;;4850250;29;20072;-93
2022/08/08 05:37:58;;;;;;;22.42;12.95;;;27.20;99.90;;;;;;4848517;29;20085;-92
2022/08/08 05:44:28;;;;;;;29.23;13.25;;;27.40;99.90;;;;;;4774056;30;20036;-93
2022/08/08 05:47:00;;;;;;;30.40;14.23;;;27.60;99.90;;;;;;4761241;30;20126;-93
2022/08/08 05:49:59;;;;;;;24.98;13.75;;;27.80;99.90;;;;;;4775098;30;20040;-93
2022/08/08 05:52:37;;;;;;;27.23;12.82;;;28.00;99.90;;;;;;4760158;30;20054;-93
2022/08/08 05:55:09;;;;;;;21.08;13.18;;;28.00;99.90;;;;;;4759269;30;20048;-93
2022/08/08 05:57:44;;;;;;;;;;;28.20;99.90;;;;;;4759130;30;20063;-92
2022/08/08 06:00:12;;;;;;;22.70;13.23;;;28.40;99.90;;;;;;4774252;30;19922;-92
2022/08/08 06:06:14;;;;;;;21.75;12.35;;;28.40;99.90;;;;;;4773134;30;20039;-94
2022/08/08 06:08:52;;;;;;;22.85;11.57;;;28.50;99.90;;;;;;4723688;30;20123;-92
2022/08/08 06:11:20;;;;;;;18.80;12.80;;;28.80;99.90;;;;;;4722734;30;20084;-93
2022/08/08 06:13:48;;;;;;;21.80;11.48;;;28.70;99.90;;;;;;4722121;30;20053;-92
2022/08/08 06:16:20;;;;;;;16.90;10.52;;;28.70;99.90;;;;;;4740266;30;20071;-91
2022/08/08 06:19:11;;;;;;;25.42;11.70;;;28.50;99.90;;;;;;4755731;30;20036;-90
2022/08/08 06:21:40;;;;;;;17.98;10.70;;;28.70;99.90;;;;;;4774527;29;20054;-91
2022/08/08 06:24:07;;;;;;;17.85;10.80;;;29.00;99.90;;;;;;4778066;29;20138;-92
2022/08/08 06:26:50;;;;;;;18.33;9.80;;;29.20;99.90;;;;;;4778774;29;20453;-91
2022/08/08 06:29:42;;;;;;;13.35;8.90;;;30.40;99.90;;;;;;4778344;29;20035;-91
2022/08/08 06:32:14;;;;;;;14.05;8.32;;;32.00;99.90;;;;;;4807948;29;20156;-91
2022/08/08 06:34:46;;;;;;;17.08;9.13;;;33.20;99.90;;;;;;4778042;29;20485;-91
2022/08/08 06:37:15;;;;;;;17.50;8.60;;;33.70;99.90;;;;;;4778226;29;20034;-91
2022/08/08 06:39:49;;;;;;;12.90;8.90;;;33.90;99.90;;;;;;4793099;29;20078;-92
2022/08/08 06:45:46;;;;;;;;;;;;;;;;;;;;;
2022/08/08 06:51:43;;;;;;;15.07;8.63;;;34.90;99.90;;;;;;4876903;29;20056;-93
2022/08/08 06:55:05;;;;;;;14.10;8.15;;;35.60;99.90;;;;;;4861797;29;20453;-93
2022/08/08 07:27:13;;;;;;;14.20;13.20;;;36.70;99.90;;;;;;5004467;23;20057;-93
2022/08/08 07:29:51;;;;;;;15.43;14.02;;;36.40;99.90;;;;;;4913025;23;20056;-94
2022/08/08 07:32:20;;;;;;;15.57;14.38;;;36.20;99.90;;;;;;5787023;23;20023;-94
2022/08/08 07:34:58;;;;;;;15.73;14.43;;;35.50;99.90;;;;;;4886257;29;20116;-94
2022/08/08 07:37:42;;;;;;;14.15;13.10;;;36.30;99.90;;;;;;4900752;29;20031;-94
2022/08/08 07:40:33;;;;;;;15.45;13.98;;;36.20;99.90;;;;;;4912462;29;20099;-93
2022/08/08 07:43:05;;;;;;;14.25;13.40;;;36.20;99.90;;;;;;4818996;29;20056;-94
2022/08/08 07:45:33;;;;;;;15.23;14.00;;;36.10;99.90;;;;;;4818800;29;20067;-94
2022/08/08 07:48:01;;;;;;;14.80;13.88;;;36.40;99.90;;;;;;4818054;29;20034;-93
2022/08/08 07:50:30;;;;;;;15.50;14.00;;;36.80;99.90;;;;;;4823008;29;20037;-93
2022/08/08 07:53:05;;;;;;;15.45;14.27;;;37.30;99.90;;;;;;4826921;29;20038;-93
2022/08/08 07:55:32;;;;;;;14.65;13.75;;;38.10;99.90;;;;;;4829947;29;20033;-94
2022/08/08 07:58:22;;;;;;;16.20;14.93;;;37.80;99.90;;;;;;4827041;29;20034;-94
2022/08/08 08:00:58;;;;;;;14.40;13.57;;;37.50;99.90;;;;;;4824035;29;20502;-93
2022/08/08 08:03:49;;;;;;;14.68;13.50;;;37.50;99.90;;;;;;4818279;29;20050;-93
2022/08/08 08:06:35;;;;;;;15.75;14.23;;;37.20;99.90;;;;;;4820585;29;20038;-94
2022/08/08 08:09:25;;;;;;;15.07;14.07;;;37.40;99.90;;;;;;4824246;29;20116;-94
2022/08/08 08:11:54;;;;;;;15.00;13.98;;;37.70;99.90;;;;;;4830121;29;20101;-93
2022/08/08 08:14:45;;;;;;;14.80;13.65;;;38.00;99.90;;;;;;4831071;29;20054;-93
2022/08/08 08:17:19;;;;;;;14.57;13.43;;;37.70;99.90;;;;;;4829551;29;20510;-93
2022/08/08 08:20:24;;;;;;;14.98;13.93;;;37.50;99.90;;;;;;4845509;29;20043;-93
2022/08/08 08:22:50;;;;;;;14.95;13.93;;;37.70;99.90;;;;;;4903712;29;20064;-93
2022/08/08 08:25:19;;;;;;;15.20;14.15;;;37.40;99.90;;;;;;4903502;29;20035;-94
2022/08/08 08:27:46;;;;;;;15.18;13.93;;;36.80;99.90;;;;;;4902402;29;20051;-93
2022/08/08 08:30:13;;;;;;;15.35;14.10;;;37.10;99.90;;;;;;4901872;29;20076;-94
2022/08/08 08:32:41;;;;;;;14.30;13.32;;;37.10;99.90;;;;;;4902023;29;20510;-93
2022/08/08 08:35:17;;;;;;;15.10;14.02;;;37.50;99.90;;;;;;4901805;29;20100;-93
2022/08/08 08:37:47;;;;;;;15.20;14.02;;;38.10;99.90;;;;;;4901813;29;20064;-94
2022/08/08 08:40:25;;;;;;;14.32;13.40;;;37.10;99.90;;;;;;4902448;29;20105;-93
2022/08/08 08:42:55;;;;;;;15.63;14.57;;;37.00;99.90;;;;;;4902349;29;20036;-93
2022/08/08 08:45:23;;;;;;;15.02;14.10;;;36.90;99.90;;;;;;4902688;29;20538;-94
2022/08/08 08:47:54;;;;;;;15.00;13.98;;;36.60;99.90;;;;;;4902076;29;20059;-93
2022/08/08 08:50:26;;;;;;;13.90;13.00;;;36.10;99.90;;;;;;4902202;29;20083;-93
2022/08/08 08:53:21;;;;;;;14.88;13.88;;;36.40;99.90;;;;;;4901875;29;20087;-94
2022/08/08 08:55:49;;;;;;;14.75;13.77;;;35.90;99.90;;;;;;4904714;29;20028;-92
2022/08/08 08:58:42;;;;;;;14.60;13.60;;;35.70;99.90;;;;;;4910587;29;20043;-93
2022/08/08 09:01:16;;;;;;;13.38;12.48;;;36.10;99.90;;;;;;4902911;29;20520;-93
2022/08/08 09:03:49;;;;;;;14.27;13.38;;;35.80;99.90;;;;;;4901819;29;20044;-93
2022/08/08 09:06:42;;;;;;;14.02;13.13;;;35.60;99.90;;;;;;4902764;29;20029;-94
2022/08/08 09:09:17;;;;;;;14.98;13.82;;;35.80;99.90;;;;;;4903173;29;20032;-93
2022/08/08 09:11:46;;;;;;;15.03;13.90;;;36.40;99.90;;;;;;4907716;29;20060;-91
2022/08/08 09:14:15;;;;;;;15.07;14.05;;;37.00;99.90;;;;;;4914711;29;21072;-82
2022/08/08 09:16:46;;;;;;;15.60;14.55;;;37.10;99.90;;;;;;4932414;29;20311;-83
2022/08/08 09:19:14;;;;;;;15.13;14.00;;;37.60;99.90;;;;;;4937129;29;20422;-84
2022/08/08 09:21:41;;;;;;;15.13;13.95;;;37.70;99.90;;;;;;4919412;29;20083;-82
2022/08/08 09:24:09;;;;;;;14.70;13.55;;;38.30;99.90;;;;;;4936307;29;20040;-83
2022/08/08 09:27:12;;;;;;;14.65;13.68;;;38.40;99.90;;;;;;4918342;29;20036;-80
2022/08/08 09:30:04;;;;;;;14.77;13.77;;;38.10;99.90;;;;;;4864128;29;20426;-80
2022/08/08 09:32:43;;;;;;;15.13;13.80;;;38.10;99.90;;;;;;4879466;29;20352;-81
2022/08/08 09:35:19;;;;;;;14.65;13.75;;;38.10;99.90;;;;;;4895026;29;20048;-80
2022/08/08 09:37:49;;;;;;;15.43;14.18;;;38.10;99.90;;;;;;4879535;29;20041;-80
2022/08/08 09:40:25;;;;;;;14.90;14.00;;;37.30;99.90;;;;;;4879594;29;20039;-80
2022/08/08 09:43:16;;;;;;;14.70;13.80;;;36.00;99.90;;;;;;4854671;29;20041;-81
2022/08/08 09:46:04;;;;;;;15.40;14.18;;;35.40;99.90;;;;;;4867058;29;20029;-80
2022/08/08 09:48:34;;;;;;;15.30;14.30;;;35.40;99.90;;;;;;4884454;29;20395;-86
2022/08/08 09:51:01;;;;;;;15.68;14.57;;;35.20;99.90;;;;;;4864109;29;20041;-87
2022/08/08 09:53:43;;;;;;;15.35;14.25;;;35.30;99.90;;;;;;4865840;29;20049;-86
2022/08/08 09:56:11;;;;;;;15.27;14.20;;;36.10;99.90;;;;;;4865778;29;20029;-85
2022/08/08 09:58:39;;;;;;;14.52;13.43;;;36.70;99.90;;;;;;4867114;29;20108;-85
2022/08/08 10:01:08;;;;;;;15.32;14.32;;;36.90;99.90;;;;;;4841207;29;20018;-87
2022/08/08 10:03:36;;;;;;;15.23;14.18;;;36.90;99.90;;;;;;4884815;29;20457;-87
2022/08/08 10:06:16;;;;;;;15.35;14.27;;;37.30;99.90;;;;;;4898738;29;20021;-87
2022/08/08 10:08:45;;;;;;;15.38;14.27;;;36.50;99.90;;;;;;4902707;29;20169;-88
2022/08/08 10:11:15;;;;;;;14.80;13.82;;;36.50;99.90;;;;;;4905704;29;20021;-87
2022/08/08 10:13:53;;;;;;;15.55;14.45;;;36.00;99.90;;;;;;4906073;29;20329;-85
2022/08/08 10:16:20;;;;;;;15.93;14.65;;;36.20;99.90;;;;;;4915912;29;20028;-85
2022/08/08 10:18:47;;;;;;;15.45;14.27;;;36.20;99.90;;;;;;4906222;29;20123;-85
2022/08/08 10:21:18;;;;;;;14.80;13.80;;;36.30;99.90;;;;;;4893016;29;20116;-81
2022/08/08 10:23:46;;;;;;;15.57;14.38;;;36.30;99.90;;;;;;4901238;29;20125;-79
2022/08/08 10:26:28;;;;;;;14.93;13.93;;;36.20;99.90;;;;;;4899374;29;20486;-78
2022/08/08 10:29:01;;;;;;;14.77;13.60;;;36.30;99.90;;;;;;4900927;29;20048;-78
2022/08/08 10:34:19;;;;;;;14.55;13.48;;;34.90;99.90;;;;;;4914812;29;20052;-78
2022/08/08 10:36:46;;;;;;;15.05;13.57;;;34.30;99.90;;;;;;4919729;29;20549;-78
2022/08/08 10:39:21;;;;;;;14.55;13.43;;;34.20;99.90;;;;;;4920146;29;20446;-78
2022/08/08 10:42:01;;;;;;;14.93;13.70;;;33.80;99.90;;;;;;4919909;29;20437;-78
2022/08/08 10:44:39;;;;;;;15.05;13.40;;;33.80;99.90;;;;;;4919890;29;20047;-78
2022/08/08 10:47:18;;;;;;;14.73;13.02;;;33.50;99.90;;;;;;4919874;29;20029;-78
2022/08/08 10:50:00;;;;;;;14.20;12.98;;;33.50;99.90;;;;;;4919875;29;20059;-77
2022/08/08 10:52:41;;;;;;;13.60;12.68;;;33.50;99.90;;;;;;4919815;29;20377;-78
2022/08/08 10:55:12;;;;;;;15.45;14.00;;;33.60;99.90;;;;;;4919798;29;20032;-79
2022/08/08 10:57:47;;;;;;;15.50;14.38;;;33.80;99.90;;;;;;4920036;29;20347;-79
2022/08/08 11:00:25;;;;;;;15.55;14.45;;;34.20;99.90;;;;;;4919504;29;20489;-79
2022/08/08 11:02:53;;;;;;;15.75;14.57;;;34.70;99.90;;;;;;4919386;29;20509;-79
2022/08/08 11:05:20;;;;;;;16.17;15.18;;;35.20;99.90;;;;;;4919381;29;20496;-78
2022/08/08 11:07:52;;;;;;;14.10;13.20;;;35.50;99.90;;;;;;4919378;29;20031;-79
2022/08/08 11:10:21;;;;;;;15.20;14.20;;;35.70;99.90;;;;;;4920006;29;20028;-79
2022/08/08 11:12:53;;;;;;;15.30;14.13;;;35.00;99.90;;;;;;4920462;29;20118;-79
2022/08/08 11:15:24;;;;;;;14.73;13.70;;;34.20;99.90;;;;;;4920953;29;20514;-80
2022/08/08 12:00:25;;;;;;;;;;;;;;;;;;;;;
2022/08/08 15:43:22;;;;;;;10.30;9.13;;;32.00;99.90;;;;;;5975824;23;20047;31
2022/08/08 17:08:20;;;;;;;10.60;7.07;;;30.30;99.90;;;;;;4908465;29;20386;-93
2022/08/08 17:14:43;;;;;;;11.73;7.38;;;30.00;99.90;;;;;;4931488;23;20059;-94
2022/08/08 17:36:50;;;;;;;10.27;8.23;;;29.60;99.90;;;;;;5265391;23;20419;-94
2022/08/08 17:39:42;;;;;;;13.85;7.65;;;29.40;99.90;;;;;;4890083;29;20040;-94
2022/08/08 20:25:43;;;;;;;16.25;10.13;;;26.80;99.90;;;;;;5974593;23;20027;31
2022/08/08 20:28:28;;;;;;;16.90;10.02;;;26.80;99.90;;;;;;4864416;29;20495;-93
2022/08/08 20:31:01;;;;;;;15.82;9.90;;;26.90;99.90;;;;;;4881493;29;20123;-94
2022/08/08 20:33:33;;;;;;;17.35;10.70;;;26.80;99.90;;;;;;4914772;23;20061;-92
2022/08/08 20:36:00;;;;;;;16.58;11.63;;;26.80;99.90;;;;;;4900550;29;20075;-93
2022/08/08 20:38:28;;;;;;;17.70;10.40;;;26.80;99.90;;;;;;4901276;29;20025;-91
2022/08/08 20:40:56;;;;;;;21.40;10.55;;;26.70;99.90;;;;;;4901001;29;20040;-92
2022/08/08 20:43:22;;;;;;;24.77;10.55;;;26.70;99.90;;;;;;4900026;29;20174;-93
2022/08/08 20:45:49;;;;;;;16.23;10.38;;;26.70;99.90;;;;;;4898834;29;20032;-92
